createdAt,value
2023-02-15T00:04:51.163Z,46.80
2023-02-15T00:09:54.289Z,38.90
2023-02-15T00:14:57.388Z,44.42
2023-02-15T00:20:01.884Z,49.03
2023-02-15T00:25:05.304Z,47.65
2023-02-15T00:30:09.029Z,46.15
2023-02-15T00:35:13.757Z,44.83
2023-02-15T00:40:16.912Z,45.17
2023-02-15T00:45:20.154Z,46.78
2023-02-15T00:50:24.686Z,46.38
2023-02-15T00:55:27.939Z,47.20
2023-02-15T01:00:33.211Z,48.60
2023-02-15T01:05:37.774Z,52.92
2023-02-15T01:10:40.982Z,49.55
2023-02-15T01:15:45.958Z,55.20
2023-02-15T01:20:50.980Z,50.97
2023-02-15T01:25:54.281Z,51.97
2023-02-15T01:30:57.556Z,53.38
2023-02-15T01:36:02.439Z,57.00
2023-02-15T01:41:19.668Z,48.92
2023-02-15T01:46:26.074Z,48.60
2023-02-15T01:51:32.365Z,48.92
2023-02-15T01:56:36.758Z,56.97
2023-02-15T02:01:40.353Z,41.80
2023-02-15T02:06:46.812Z,42.78
2023-02-15T02:11:50.270Z,48.72
2023-02-15T02:16:55.930Z,47.58
2023-02-15T02:22:10.484Z,42.47
2023-02-15T02:27:17.914Z,44.50
2023-02-15T02:32:34.622Z,42.90
2023-02-15T02:37:45.697Z,44.75
2023-02-15T02:42:51.703Z,38.35
2023-02-15T02:47:57.210Z,42.28
2023-02-15T02:53:01.701Z,48.03
2023-02-15T02:58:07.478Z,47.60
2023-02-15T03:03:13.481Z,43.78
2023-02-15T03:08:22.809Z,45.80
2023-02-15T03:13:26.613Z,51.58
2023-02-15T03:18:32.938Z,41.13
2023-02-15T03:23:39.013Z,43.60
2023-02-15T03:28:44.313Z,43.10
2023-02-15T03:33:51.699Z,48.30
2023-02-15T03:39:02.214Z,40.88
2023-02-15T03:44:06.914Z,42.75
2023-02-15T03:49:11.872Z,42.97
2023-02-15T03:54:37.894Z,45.97
2023-02-15T03:59:58.753Z,44.85
2023-02-15T04:05:01.917Z,43.72
2023-02-15T04:10:24.597Z,41.80
2023-02-15T04:15:45.319Z,39.60
2023-02-15T04:21:05.853Z,39.83
2023-02-15T04:26:10.435Z,40.70
2023-02-15T04:31:13.638Z,41.78
2023-02-15T04:36:16.873Z,36.95
2023-02-15T04:41:21.391Z,39.20
2023-02-15T04:46:24.553Z,41.53
2023-02-15T04:51:27.663Z,42.22
2023-02-15T04:56:34.116Z,37.33
2023-02-15T05:01:37.381Z,37.83
2023-02-15T05:06:40.558Z,40.00
2023-02-15T05:11:45.060Z,37.72
2023-02-15T05:16:48.405Z,42.47
2023-02-15T05:21:51.571Z,40.97
2023-02-15T05:27:22.286Z,38.67
2023-02-15T05:32:25.664Z,41.60
2023-02-15T05:37:28.836Z,43.25
2023-02-15T05:42:33.337Z,49.80
2023-02-15T05:47:36.489Z,36.53
2023-02-15T05:52:39.589Z,46.25
2023-02-15T05:57:46.335Z,40.17
2023-02-15T06:02:49.626Z,38.75
2023-02-15T06:07:52.872Z,46.22
2023-02-15T06:12:57.373Z,35.10
2023-02-15T06:18:00.605Z,39.88
2023-02-15T06:23:03.720Z,44.53
2023-02-15T06:28:08.303Z,38.92
2023-02-15T06:33:11.496Z,41.97
2023-02-15T06:38:14.704Z,40.25
2023-02-15T06:43:19.219Z,45.40
2023-02-15T06:48:22.273Z,44.50
2023-02-15T06:53:25.571Z,45.35
2023-02-15T06:58:30.070Z,45.42
2023-02-15T07:03:33.483Z,43.28
2023-02-15T07:08:36.872Z,38.80
2023-02-15T07:13:43.774Z,48.33
2023-02-15T07:18:46.946Z,53.30
2023-02-15T07:23:50.408Z,48.30
2023-02-15T07:28:54.966Z,49.28
2023-02-15T07:33:58.708Z,46.33
2023-02-15T07:39:01.997Z,52.00
2023-02-15T07:44:07.150Z,51.42
2023-02-15T07:49:10.491Z,49.67
2023-02-15T07:54:13.607Z,46.97
2023-02-15T07:59:18.241Z,48.88
2023-02-15T08:04:21.604Z,51.92
2023-02-15T08:09:24.730Z,56.22
2023-02-15T08:14:30.687Z,56.67
2023-02-15T08:19:35.598Z,52.63
2023-02-15T08:24:39.514Z,48.90
2023-02-15T08:29:44.026Z,56.05
2023-02-15T08:34:47.418Z,48.20
2023-02-15T08:39:51.585Z,53.40
2023-02-15T08:44:56.297Z,55.40
2023-02-15T08:49:59.926Z,51.42
2023-02-15T08:55:03.124Z,56.42
2023-02-15T09:00:09.013Z,44.05
2023-02-15T09:05:12.247Z,55.63
2023-02-15T09:10:15.540Z,47.72
2023-02-15T09:15:20.017Z,43.83
2023-02-15T09:20:23.812Z,52.42
2023-02-15T09:25:27.238Z,49.05
2023-02-15T09:30:32.185Z,47.25
2023-02-15T09:35:35.602Z,52.17
2023-02-15T09:40:43.043Z,49.22
2023-02-15T09:46:02.963Z,50.85
2023-02-15T09:51:13.648Z,49.28
2023-02-15T09:56:21.010Z,41.63
2023-02-15T10:01:36.116Z,48.40
2023-02-15T10:06:45.431Z,44.20
2023-02-15T10:11:55.626Z,46.95
2023-02-15T10:17:05.707Z,50.47
2023-02-15T10:22:17.464Z,33.53
2023-02-15T10:27:21.462Z,56.08
2023-02-15T10:32:27.388Z,45.95
2023-02-15T10:37:40.539Z,47.30
2023-02-15T10:42:52.170Z,47.20
2023-02-15T10:48:03.685Z,43.03
2023-02-15T10:53:23.174Z,40.95
2023-02-15T10:58:31.905Z,39.60
2023-02-15T11:03:42.364Z,41.70
2023-02-15T11:08:46.963Z,26.48
2023-02-15T11:13:52.205Z,40.13
2023-02-15T11:18:58.607Z,43.58
2023-02-15T11:24:02.833Z,36.85
2023-02-15T11:29:10.149Z,41.58
2023-02-15T11:34:18.037Z,40.38
2023-02-15T11:39:22.914Z,39.00
2023-02-15T11:44:28.925Z,40.35
2023-02-15T11:49:34.670Z,48.55
2023-02-15T11:54:41.517Z,39.13
2023-02-15T11:59:48.516Z,51.55
2023-02-15T12:04:54.864Z,44.15
2023-02-15T12:10:02.326Z,47.13
2023-02-15T12:15:07.365Z,42.72
2023-02-15T12:20:26.712Z,45.63
2023-02-15T12:25:32.068Z,43.83
2023-02-15T12:30:37.850Z,47.67
2023-02-15T12:35:42.730Z,45.55
2023-02-15T12:40:58.548Z,43.35
2023-02-15T12:46:22.668Z,45.92
2023-02-15T12:51:27.426Z,39.95
2023-02-15T12:56:30.828Z,44.63
2023-02-15T13:01:34.291Z,49.03
2023-02-15T13:06:39.172Z,47.92
2023-02-15T13:11:43.997Z,47.13
2023-02-15T13:16:48.493Z,39.08
2023-02-15T13:21:54.957Z,45.75
2023-02-15T13:27:13.121Z,42.83
2023-02-15T13:32:25.035Z,48.95
2023-02-15T13:37:43.521Z,46.80
2023-02-15T13:42:48.781Z,48.92
2023-02-15T13:47:55.820Z,45.30
2023-02-15T13:53:05.376Z,46.22
2023-02-15T13:58:26.873Z,43.90
2023-02-15T14:03:46.135Z,45.63
2023-02-15T14:08:58.726Z,47.75
2023-02-15T14:14:19.659Z,51.13
2023-02-15T14:19:28.069Z,43.25
2023-02-15T14:24:35.821Z,47.65
2023-02-15T14:29:46.209Z,52.75
2023-02-15T14:34:52.488Z,38.50
2023-02-15T14:40:17.287Z,48.60
2023-02-15T14:45:22.843Z,48.40
2023-02-15T14:50:39.453Z,46.03
2023-02-15T14:55:44.413Z,45.47
2023-02-15T15:00:47.866Z,55.75
2023-02-15T15:05:52.338Z,73.05
2023-02-15T15:10:57.017Z,51.63
2023-02-15T15:16:26.106Z,47.83
2023-02-15T15:21:48.016Z,44.63
2023-02-15T15:27:12.742Z,52.25
2023-02-15T15:32:20.433Z,52.90
2023-02-15T15:37:57.042Z,52.33
2023-02-15T15:43:21.403Z,48.00
2023-02-15T15:48:36.401Z,56.15
2023-02-15T15:53:43.402Z,46.53
2023-02-15T15:58:50.866Z,44.50
2023-02-15T16:03:56.275Z,46.28
2023-02-15T16:08:59.458Z,47.80
2023-02-15T16:14:02.582Z,49.88
2023-02-15T16:19:07.112Z,53.67
2023-02-15T16:24:21.121Z,57.95
2023-02-15T16:29:29.349Z,54.53
2023-02-15T16:34:34.498Z,54.40
2023-02-15T16:39:42.598Z,39.00
2023-02-15T16:44:48.452Z,48.20
2023-02-15T16:49:54.214Z,50.35
2023-02-15T16:54:58.973Z,47.50
2023-02-15T17:00:04.547Z,54.45
2023-02-15T17:05:18.732Z,54.38
2023-02-15T17:10:29.645Z,54.05
2023-02-15T17:15:34.464Z,50.30
2023-02-15T17:20:39.901Z,47.35
2023-02-15T17:25:44.257Z,46.95
2023-02-15T17:30:48.298Z,53.03
2023-02-15T17:36:06.505Z,48.40
2023-02-15T17:41:10.646Z,54.70
2023-02-15T17:46:14.560Z,65.35
2023-02-15T17:51:19.934Z,54.50
2023-02-15T17:56:23.056Z,97.95
2023-02-15T18:01:43.909Z,51.85
2023-02-15T18:07:06.033Z,56.67
2023-02-15T18:12:19.350Z,55.30
2023-02-15T18:17:25.251Z,44.88
2023-02-15T18:22:30.905Z,55.28
2023-02-15T18:27:34.287Z,46.20
2023-02-15T18:32:40.236Z,42.13
2023-02-15T18:37:44.986Z,51.38
2023-02-15T18:42:49.531Z,70.45
2023-02-15T18:47:53.100Z,52.85
2023-02-15T18:52:57.666Z,55.10
2023-02-15T18:58:01.391Z,57.03
2023-02-15T19:03:04.930Z,55.42
2023-02-15T19:08:14.539Z,53.05
2023-02-15T19:13:18.261Z,54.95
2023-02-15T19:18:21.724Z,50.30
2023-02-15T19:23:27.050Z,43.95
2023-02-15T19:28:32.695Z,44.17
2023-02-15T19:33:36.065Z,50.63
2023-02-15T19:38:41.881Z,60.63
2023-02-15T19:43:46.714Z,53.92
2023-02-15T19:48:51.035Z,54.05
2023-02-15T19:53:57.737Z,48.78
2023-02-15T19:59:01.104Z,49.95
2023-02-15T20:04:04.286Z,50.92
2023-02-15T20:09:10.493Z,49.17
2023-02-15T20:14:14.356Z,55.72
2023-02-15T20:19:17.565Z,96.50
2023-02-15T20:24:23.375Z,66.30
2023-02-15T20:29:26.945Z,61.70
2023-02-15T20:34:30.223Z,67.97
2023-02-15T20:39:37.144Z,57.75
2023-02-15T20:44:41.274Z,66.30
2023-02-15T20:49:44.589Z,65.30
2023-02-15T20:54:49.422Z,62.95
2023-02-15T20:59:52.756Z,64.18
2023-02-15T21:04:56.337Z,60.13
2023-02-15T21:10:01.429Z,62.47
2023-02-15T21:15:19.108Z,68.95
2023-02-15T21:20:22.565Z,62.13
2023-02-15T21:25:30.418Z,63.65
2023-02-15T21:30:33.585Z,64.75
2023-02-15T21:35:37.959Z,61.92
2023-02-15T21:40:42.944Z,55.38
2023-02-15T21:46:03.904Z,58.03
2023-02-15T21:51:24.566Z,58.88
2023-02-15T21:56:29.245Z,67.95
2023-02-15T22:01:32.572Z,54.10
2023-02-15T22:06:35.946Z,58.30
2023-02-15T22:11:40.631Z,69.50
2023-02-15T22:16:43.763Z,62.78
2023-02-15T22:21:47.187Z,66.03
2023-02-15T22:26:51.765Z,62.67
2023-02-15T22:31:55.037Z,69.72
2023-02-15T22:36:59.350Z,65.25
2023-02-15T22:42:04.004Z,66.07
2023-02-15T22:47:07.171Z,66.15
2023-02-15T22:52:13.456Z,68.70
2023-02-15T22:57:22.715Z,70.55
2023-02-15T23:02:25.899Z,67.32
2023-02-15T23:07:29.080Z,61.88
2023-02-15T23:12:53.729Z,66.30
2023-02-15T23:17:56.811Z,61.90
2023-02-15T23:22:59.917Z,70.55
2023-02-15T23:28:05.185Z,66.35
2023-02-15T23:33:10.534Z,66.65
2023-02-15T23:38:18.936Z,70.45
2023-02-15T23:43:23.837Z,62.88
2023-02-15T23:48:30.900Z,70.68
2023-02-15T23:53:34.198Z,65.25
2023-02-15T23:58:40.405Z,64.25
